sensor_id;sensor_type;location;lat;lon;timestamp;P1;durP1;ratioP1;P2;durP2;ratioP2
74894;SDS011;63447;49.446;8.666;2023-03-11T00:00:41;3.70;;;1.00;;
74894;SDS011;63447;49.446;8.666;2023-03-11T00:03:10;2.90;;;0.75;;
74894;SDS011;63447;49.446;8.666;2023-03-11T00:05:40;3.72;;;1.05;;
74894;SDS011;63447;49.446;8.666;2023-03-11T00:08:08;2.47;;;0.70;;
74894;SDS011;63447;49.446;8.666;2023-03-11T00:10:38;4.32;;;0.90;;
74894;SDS011;63447;49.446;8.666;2023-03-11T00:13:06;3.30;;;0.95;;
74894;SDS011;63447;49.446;8.666;2023-03-11T00:15:35;2.58;;;0.80;;
74894;SDS011;63447;49.446;8.666;2023-03-11T00:18:02;2.90;;;1.10;;
74894;SDS011;63447;49.446;8.666;2023-03-11T00:20:29;3.97;;;0.88;;
74894;SDS011;63447;49.446;8.666;2023-03-11T00:23:00;5.38;;;1.15;;
74894;SDS011;63447;49.446;8.666;2023-03-11T00:25:31;3.67;;;1.50;;
74894;SDS011;63447;49.446;8.666;2023-03-11T00:27:57;3.45;;;1.00;;
74894;SDS011;63447;49.446;8.666;2023-03-11T00:30:23;4.47;;;1.10;;
74894;SDS011;63447;49.446;8.666;2023-03-11T00:32:52;3.10;;;1.00;;
74894;SDS011;63447;49.446;8.666;2023-03-11T00:35:23;4.72;;;1.70;;
74894;SDS011;63447;49.446;8.666;2023-03-11T00:37:53;4.65;;;1.10;;
74894;SDS011;63447;49.446;8.666;2023-03-11T00:40:22;4.10;;;1.25;;
74894;SDS011;63447;49.446;8.666;2023-03-11T00:42:51;5.28;;;1.70;;
74894;SDS011;63447;49.446;8.666;2023-03-11T00:45:19;5.43;;;1.42;;
74894;SDS011;63447;49.446;8.666;2023-03-11T00:47:49;5.65;;;1.58;;
74894;SDS011;63447;49.446;8.666;2023-03-11T00:50:17;4.45;;;1.50;;
74894;SDS011;63447;49.446;8.666;2023-03-11T00:52:50;7.20;;;2.08;;
74894;SDS011;63447;49.446;8.666;2023-03-11T00:55:20;8.68;;;3.17;;
74894;SDS011;63447;49.446;8.666;2023-03-11T00:57:57;14.50;;;5.20;;
74894;SDS011;63447;49.446;8.666;2023-03-11T01:00:27;13.88;;;4.45;;
74894;SDS011;63447;49.446;8.666;2023-03-11T01:02:53;16.52;;;5.25;;
74894;SDS011;63447;49.446;8.666;2023-03-11T01:05:19;11.68;;;4.03;;
74894;SDS011;63447;49.446;8.666;2023-03-11T01:07:49;8.20;;;2.13;;
74894;SDS011;63447;49.446;8.666;2023-03-11T01:10:19;5.03;;;1.20;;
74894;SDS011;63447;49.446;8.666;2023-03-11T01:12:44;4.55;;;0.98;;
74894;SDS011;63447;49.446;8.666;2023-03-11T01:15:43;6.75;;;1.67;;
74894;SDS011;63447;49.446;8.666;2023-03-11T01:18:04;3.88;;;1.13;;
74894;SDS011;63447;49.446;8.666;2023-03-11T01:20:30;2.47;;;0.73;;
74894;SDS011;63447;49.446;8.666;2023-03-11T01:22:56;5.07;;;0.98;;
74894;SDS011;63447;49.446;8.666;2023-03-11T01:25:22;3.77;;;1.00;;
74894;SDS011;63447;49.446;8.666;2023-03-11T01:27:54;3.40;;;0.80;;
74894;SDS011;63447;49.446;8.666;2023-03-11T01:30:23;2.92;;;0.82;;
74894;SDS011;63447;49.446;8.666;2023-03-11T01:32:51;4.22;;;0.90;;
74894;SDS011;63447;49.446;8.666;2023-03-11T01:35:18;5.05;;;1.20;;
74894;SDS011;63447;49.446;8.666;2023-03-11T01:37:44;7.80;;;2.22;;
74894;SDS011;63447;49.446;8.666;2023-03-11T01:40:15;7.05;;;2.25;;
74894;SDS011;63447;49.446;8.666;2023-03-11T01:42:47;5.97;;;1.80;;
74894;SDS011;63447;49.446;8.666;2023-03-11T01:48:18;7.63;;;1.65;;
74894;SDS011;63447;49.446;8.666;2023-03-11T01:50:45;4.73;;;1.40;;
74894;SDS011;63447;49.446;8.666;2023-03-11T01:53:14;6.57;;;2.22;;
74894;SDS011;63447;49.446;8.666;2023-03-11T01:55:48;5.07;;;1.50;;
74894;SDS011;63447;49.446;8.666;2023-03-11T01:58:17;6.78;;;1.67;;
74894;SDS011;63447;49.446;8.666;2023-03-11T02:00:47;4.72;;;1.38;;
74894;SDS011;63447;49.446;8.666;2023-03-11T02:03:14;4.20;;;1.08;;
74894;SDS011;63447;49.446;8.666;2023-03-11T02:05:45;4.30;;;1.10;;
74894;SDS011;63447;49.446;8.666;2023-03-11T02:08:13;6.22;;;1.52;;
74894;SDS011;63447;49.446;8.666;2023-03-11T02:10:40;4.47;;;1.27;;
74894;SDS011;63447;49.446;8.666;2023-03-11T02:13:08;2.83;;;0.77;;
74894;SDS011;63447;49.446;8.666;2023-03-11T02:15:38;5.50;;;0.93;;
74894;SDS011;63447;49.446;8.666;2023-03-11T02:18:06;5.20;;;1.33;;
74894;SDS011;63447;49.446;8.666;2023-03-11T02:20:43;4.15;;;1.15;;
74894;SDS011;63447;49.446;8.666;2023-03-11T02:23:32;4.57;;;1.23;;
74894;SDS011;63447;49.446;8.666;2023-03-11T02:26:21;6.03;;;1.50;;
74894;SDS011;63447;49.446;8.666;2023-03-11T02:28:51;4.90;;;1.13;;
74894;SDS011;63447;49.446;8.666;2023-03-11T02:31:18;4.32;;;0.93;;
74894;SDS011;63447;49.446;8.666;2023-03-11T02:33:46;4.70;;;1.20;;
74894;SDS011;63447;49.446;8.666;2023-03-11T02:36:33;3.35;;;0.88;;
74894;SDS011;63447;49.446;8.666;2023-03-11T02:39:00;4.85;;;0.90;;
74894;SDS011;63447;49.446;8.666;2023-03-11T02:41:26;6.60;;;1.27;;
74894;SDS011;63447;49.446;8.666;2023-03-11T02:43:56;4.28;;;1.02;;
74894;SDS011;63447;49.446;8.666;2023-03-11T02:46:27;2.80;;;0.85;;
74894;SDS011;63447;49.446;8.666;2023-03-11T02:48:55;3.53;;;0.88;;
74894;SDS011;63447;49.446;8.666;2023-03-11T02:51:24;4.47;;;1.02;;
74894;SDS011;63447;49.446;8.666;2023-03-11T02:53:50;7.57;;;1.42;;
74894;SDS011;63447;49.446;8.666;2023-03-11T02:56:21;4.13;;;1.42;;
74894;SDS011;63447;49.446;8.666;2023-03-11T02:58:47;5.60;;;1.10;;
74894;SDS011;63447;49.446;8.666;2023-03-11T03:01:12;4.17;;;0.87;;
74894;SDS011;63447;49.446;8.666;2023-03-11T03:03:40;5.20;;;1.05;;
74894;SDS011;63447;49.446;8.666;2023-03-11T03:06:08;6.77;;;1.13;;
74894;SDS011;63447;49.446;8.666;2023-03-11T03:08:34;4.22;;;0.98;;
74894;SDS011;63447;49.446;8.666;2023-03-11T03:10:59;6.72;;;1.30;;
74894;SDS011;63447;49.446;8.666;2023-03-11T03:13:25;3.38;;;1.00;;
74894;SDS011;63447;49.446;8.666;2023-03-11T03:15:51;5.80;;;1.00;;
74894;SDS011;63447;49.446;8.666;2023-03-11T03:18:21;3.47;;;0.70;;
74894;SDS011;63447;49.446;8.666;2023-03-11T03:20:46;3.70;;;1.02;;
74894;SDS011;63447;49.446;8.666;2023-03-11T03:23:16;4.30;;;0.90;;
74894;SDS011;63447;49.446;8.666;2023-03-11T03:25:46;3.30;;;0.80;;
74894;SDS011;63447;49.446;8.666;2023-03-11T03:28:14;3.17;;;0.80;;
74894;SDS011;63447;49.446;8.666;2023-03-11T03:30:42;4.10;;;1.02;;
74894;SDS011;63447;49.446;8.666;2023-03-11T03:33:10;4.78;;;1.00;;
74894;SDS011;63447;49.446;8.666;2023-03-11T03:35:38;4.13;;;1.03;;
74894;SDS011;63447;49.446;8.666;2023-03-11T03:38:05;5.55;;;1.30;;
74894;SDS011;63447;49.446;8.666;2023-03-11T03:40:32;4.82;;;0.90;;
74894;SDS011;63447;49.446;8.666;2023-03-11T03:43:00;3.75;;;1.05;;
74894;SDS011;63447;49.446;8.666;2023-03-11T03:45:26;4.35;;;0.90;;
74894;SDS011;63447;49.446;8.666;2023-03-11T03:47:56;3.17;;;0.80;;
74894;SDS011;63447;49.446;8.666;2023-03-11T03:50:24;5.80;;;1.30;;
74894;SDS011;63447;49.446;8.666;2023-03-11T03:52:52;5.32;;;1.17;;
74894;SDS011;63447;49.446;8.666;2023-03-11T03:55:19;3.97;;;0.95;;
74894;SDS011;63447;49.446;8.666;2023-03-11T03:57:45;4.60;;;0.90;;
74894;SDS011;63447;49.446;8.666;2023-03-11T04:00:10;4.10;;;0.90;;
74894;SDS011;63447;49.446;8.666;2023-03-11T04:02:36;3.88;;;0.63;;
74894;SDS011;63447;49.446;8.666;2023-03-11T04:05:01;2.33;;;0.80;;
74894;SDS011;63447;49.446;8.666;2023-03-11T04:07:27;4.47;;;1.13;;
74894;SDS011;63447;49.446;8.666;2023-03-11T04:09:57;3.40;;;1.00;;
74894;SDS011;63447;49.446;8.666;2023-03-11T04:12:24;2.90;;;0.90;;
74894;SDS011;63447;49.446;8.666;2023-03-11T04:14:52;3.42;;;0.82;;
74894;SDS011;63447;49.446;8.666;2023-03-11T04:17:19;3.75;;;1.15;;
74894;SDS011;63447;49.446;8.666;2023-03-11T04:19:45;4.65;;;1.23;;
74894;SDS011;63447;49.446;8.666;2023-03-11T04:22:13;4.43;;;1.03;;
74894;SDS011;63447;49.446;8.666;2023-03-11T04:24:38;4.88;;;0.98;;
74894;SDS011;63447;49.446;8.666;2023-03-11T04:27:08;4.85;;;0.90;;
74894;SDS011;63447;49.446;8.666;2023-03-11T04:29:33;4.23;;;1.00;;
74894;SDS011;63447;49.446;8.666;2023-03-11T04:32:01;6.17;;;1.03;;
74894;SDS011;63447;49.446;8.666;2023-03-11T04:34:32;4.68;;;1.13;;
74894;SDS011;63447;49.446;8.666;2023-03-11T04:36:57;5.65;;;1.20;;
74894;SDS011;63447;49.446;8.666;2023-03-11T04:39:27;5.85;;;0.98;;
74894;SDS011;63447;49.446;8.666;2023-03-11T04:41:59;3.45;;;1.10;;
74894;SDS011;63447;49.446;8.666;2023-03-11T04:44:25;3.95;;;1.17;;
74894;SDS011;63447;49.446;8.666;2023-03-11T04:46:50;6.73;;;1.17;;
74894;SDS011;63447;49.446;8.666;2023-03-11T04:49:16;6.05;;;1.17;;
74894;SDS011;63447;49.446;8.666;2023-03-11T04:51:43;4.13;;;0.85;;
74894;SDS011;63447;49.446;8.666;2023-03-11T04:54:14;5.25;;;1.05;;
74894;SDS011;63447;49.446;8.666;2023-03-11T04:56:39;6.55;;;1.33;;
74894;SDS011;63447;49.446;8.666;2023-03-11T04:59:04;5.30;;;1.30;;
74894;SDS011;63447;49.446;8.666;2023-03-11T05:01:32;4.32;;;1.08;;
74894;SDS011;63447;49.446;8.666;2023-03-11T05:03:57;5.83;;;1.33;;
74894;SDS011;63447;49.446;8.666;2023-03-11T05:06:25;8.52;;;1.33;;
74894;SDS011;63447;49.446;8.666;2023-03-11T05:08:50;6.37;;;1.37;;
74894;SDS011;63447;49.446;8.666;2023-03-11T05:11:17;7.53;;;1.63;;
74894;SDS011;63447;49.446;8.666;2023-03-11T05:13:45;7.53;;;1.90;;
74894;SDS011;63447;49.446;8.666;2023-03-11T05:16:10;6.27;;;2.57;;
74894;SDS011;63447;49.446;8.666;2023-03-11T05:18:38;11.10;;;2.88;;
74894;SDS011;63447;49.446;8.666;2023-03-11T05:21:03;8.00;;;2.53;;
74894;SDS011;63447;49.446;8.666;2023-03-11T05:23:29;6.32;;;2.72;;
74894;SDS011;63447;49.446;8.666;2023-03-11T05:25:54;7.73;;;2.67;;
74894;SDS011;63447;49.446;8.666;2023-03-11T05:28:19;6.03;;;1.83;;
74894;SDS011;63447;49.446;8.666;2023-03-11T05:30:44;5.73;;;1.93;;
74894;SDS011;63447;49.446;8.666;2023-03-11T05:33:10;4.80;;;1.33;;
74894;SDS011;63447;49.446;8.666;2023-03-11T05:35:35;7.27;;;1.33;;
74894;SDS011;63447;49.446;8.666;2023-03-11T05:38:00;7.63;;;1.47;;
74894;SDS011;63447;49.446;8.666;2023-03-11T05:40:26;3.77;;;1.30;;
74894;SDS011;63447;49.446;8.666;2023-03-11T05:42:51;4.97;;;1.08;;
74894;SDS011;63447;49.446;8.666;2023-03-11T05:45:16;7.50;;;1.10;;
74894;SDS011;63447;49.446;8.666;2023-03-11T05:47:44;6.18;;;1.50;;
74894;SDS011;63447;49.446;8.666;2023-03-11T05:50:10;5.45;;;0.93;;
74894;SDS011;63447;49.446;8.666;2023-03-11T05:52:36;6.10;;;1.20;;
74894;SDS011;63447;49.446;8.666;2023-03-11T05:55:02;4.97;;;1.33;;
74894;SDS011;63447;49.446;8.666;2023-03-11T05:57:30;4.95;;;1.23;;
74894;SDS011;63447;49.446;8.666;2023-03-11T05:59:55;5.23;;;1.20;;
74894;SDS011;63447;49.446;8.666;2023-03-11T06:02:20;5.80;;;1.40;;
74894;SDS011;63447;49.446;8.666;2023-03-11T06:04:47;6.30;;;1.25;;
74894;SDS011;63447;49.446;8.666;2023-03-11T06:07:15;5.68;;;1.55;;
74894;SDS011;63447;49.446;8.666;2023-03-11T06:09:42;5.72;;;1.42;;
74894;SDS011;63447;49.446;8.666;2023-03-11T06:12:08;6.83;;;0.90;;
74894;SDS011;63447;49.446;8.666;2023-03-11T06:14:33;5.10;;;1.10;;
74894;SDS011;63447;49.446;8.666;2023-03-11T06:16:58;9.97;;;1.53;;
74894;SDS011;63447;49.446;8.666;2023-03-11T06:19:27;7.78;;;1.25;;
74894;SDS011;63447;49.446;8.666;2023-03-11T06:21:53;3.27;;;1.00;;
74894;SDS011;63447;49.446;8.666;2023-03-11T06:24:18;6.00;;;1.08;;
74894;SDS011;63447;49.446;8.666;2023-03-11T06:26:43;4.03;;;1.10;;
74894;SDS011;63447;49.446;8.666;2023-03-11T06:29:13;5.72;;;1.67;;
74894;SDS011;63447;49.446;8.666;2023-03-11T06:31:38;6.03;;;1.90;;
74894;SDS011;63447;49.446;8.666;2023-03-11T06:34:04;8.15;;;2.38;;
74894;SDS011;63447;49.446;8.666;2023-03-11T06:36:33;12.20;;;2.55;;
74894;SDS011;63447;49.446;8.666;2023-03-11T06:38:58;6.15;;;2.20;;
74894;SDS011;63447;49.446;8.666;2023-03-11T06:41:23;6.03;;;2.00;;
74894;SDS011;63447;49.446;8.666;2023-03-11T06:43:51;7.90;;;1.90;;
74894;SDS011;63447;49.446;8.666;2023-03-11T06:46:21;5.05;;;1.58;;
74894;SDS011;63447;49.446;8.666;2023-03-11T06:48:49;5.95;;;1.70;;
74894;SDS011;63447;49.446;8.666;2023-03-11T06:51:20;5.63;;;1.73;;
74894;SDS011;63447;49.446;8.666;2023-03-11T06:53:49;7.07;;;1.65;;
74894;SDS011;63447;49.446;8.666;2023-03-11T06:56:16;6.45;;;1.77;;
74894;SDS011;63447;49.446;8.666;2023-03-11T06:58:42;6.55;;;1.73;;
74894;SDS011;63447;49.446;8.666;2023-03-11T07:01:11;6.18;;;1.83;;
74894;SDS011;63447;49.446;8.666;2023-03-11T07:03:39;4.30;;;1.30;;
74894;SDS011;63447;49.446;8.666;2023-03-11T07:08:30;4.85;;;1.35;;
74894;SDS011;63447;49.446;8.666;2023-03-11T07:11:05;8.15;;;1.23;;
74894;SDS011;63447;49.446;8.666;2023-03-11T07:13:34;6.32;;;1.25;;
74894;SDS011;63447;49.446;8.666;2023-03-11T07:16:04;7.80;;;1.50;;
74894;SDS011;63447;49.446;8.666;2023-03-11T07:18:36;3.47;;;1.23;;
74894;SDS011;63447;49.446;8.666;2023-03-11T07:21:02;6.45;;;1.60;;
74894;SDS011;63447;49.446;8.666;2023-03-11T07:23:29;6.97;;;1.15;;
74894;SDS011;63447;49.446;8.666;2023-03-11T07:25:55;6.18;;;1.23;;
74894;SDS011;63447;49.446;8.666;2023-03-11T07:28:23;4.95;;;1.20;;
74894;SDS011;63447;49.446;8.666;2023-03-11T07:30:50;6.25;;;1.73;;
74894;SDS011;63447;49.446;8.666;2023-03-11T07:33:15;5.47;;;1.55;;
74894;SDS011;63447;49.446;8.666;2023-03-11T07:35:41;5.72;;;1.40;;
74894;SDS011;63447;49.446;8.666;2023-03-11T07:38:09;5.93;;;1.48;;
74894;SDS011;63447;49.446;8.666;2023-03-11T07:40:35;4.43;;;1.40;;
74894;SDS011;63447;49.446;8.666;2023-03-11T07:43:00;7.00;;;1.63;;
74894;SDS011;63447;49.446;8.666;2023-03-11T07:45:32;7.47;;;1.58;;
74894;SDS011;63447;49.446;8.666;2023-03-11T07:47:57;5.50;;;1.55;;
74894;SDS011;63447;49.446;8.666;2023-03-11T07:50:22;6.00;;;1.33;;
74894;SDS011;63447;49.446;8.666;2023-03-11T07:52:48;6.40;;;1.67;;
74894;SDS011;63447;49.446;8.666;2023-03-11T07:55:14;4.77;;;1.30;;
74894;SDS011;63447;49.446;8.666;2023-03-11T07:57:39;6.82;;;1.55;;
74894;SDS011;63447;49.446;8.666;2023-03-11T08:00:05;5.25;;;1.48;;
74894;SDS011;63447;49.446;8.666;2023-03-11T08:02:31;5.38;;;1.52;;
74894;SDS011;63447;49.446;8.666;2023-03-11T08:04:58;8.05;;;1.58;;
74894;SDS011;63447;49.446;8.666;2023-03-11T08:09:49;4.50;;;1.53;;
74894;SDS011;63447;49.446;8.666;2023-03-11T08:12:14;5.93;;;1.53;;
74894;SDS011;63447;49.446;8.666;2023-03-11T08:17:07;9.38;;;1.75;;
74894;SDS011;63447;49.446;8.666;2023-03-11T08:22:01;5.37;;;1.30;;
74894;SDS011;63447;49.446;8.666;2023-03-11T08:24:29;8.95;;;2.03;;
74894;SDS011;63447;49.446;8.666;2023-03-11T08:29:21;8.65;;;1.60;;
74894;SDS011;63447;49.446;8.666;2023-03-11T08:31:47;9.25;;;1.80;;
74894;SDS011;63447;49.446;8.666;2023-03-11T08:34:17;9.65;;;2.30;;
74894;SDS011;63447;49.446;8.666;2023-03-11T08:36:46;6.72;;;2.10;;
74894;SDS011;63447;49.446;8.666;2023-03-11T08:41:37;6.63;;;1.60;;
74894;SDS011;63447;49.446;8.666;2023-03-11T08:46:29;7.33;;;1.83;;
74894;SDS011;63447;49.446;8.666;2023-03-11T08:48:56;6.65;;;1.70;;
74894;SDS011;63447;49.446;8.666;2023-03-11T08:51:25;9.50;;;1.80;;
74894;SDS011;63447;49.446;8.666;2023-03-11T08:56:16;7.03;;;1.88;;
74894;SDS011;63447;49.446;8.666;2023-03-11T08:58:42;7.18;;;1.88;;
74894;SDS011;63447;49.446;8.666;2023-03-11T09:03:33;6.72;;;1.70;;
74894;SDS011;63447;49.446;8.666;2023-03-11T09:06:00;5.50;;;1.50;;
74894;SDS011;63447;49.446;8.666;2023-03-11T09:08:29;9.13;;;1.73;;
74894;SDS011;63447;49.446;8.666;2023-03-11T09:10:57;5.30;;;1.50;;
74894;SDS011;63447;49.446;8.666;2023-03-11T09:13:22;9.30;;;1.70;;
74894;SDS011;63447;49.446;8.666;2023-03-11T09:18:16;5.90;;;1.58;;
74894;SDS011;63447;49.446;8.666;2023-03-11T09:20:43;6.13;;;1.60;;
74894;SDS011;63447;49.446;8.666;2023-03-11T09:23:12;7.10;;;1.70;;
74894;SDS011;63447;49.446;8.666;2023-03-11T09:25:39;6.88;;;1.83;;
74894;SDS011;63447;49.446;8.666;2023-03-11T09:28:06;8.25;;;2.15;;
74894;SDS011;63447;49.446;8.666;2023-03-11T09:30:34;6.30;;;2.03;;
74894;SDS011;63447;49.446;8.666;2023-03-11T09:33:00;6.18;;;1.27;;
74894;SDS011;63447;49.446;8.666;2023-03-11T09:35:25;5.20;;;1.17;;
74894;SDS011;63447;49.446;8.666;2023-03-11T09:37:51;6.47;;;1.52;;
74894;SDS011;63447;49.446;8.666;2023-03-11T09:40:19;8.32;;;2.05;;
74894;SDS011;63447;49.446;8.666;2023-03-11T09:45:16;8.05;;;1.70;;
74894;SDS011;63447;49.446;8.666;2023-03-11T09:50:28;6.28;;;1.30;;
74894;SDS011;63447;49.446;8.666;2023-03-11T09:53:18;6.78;;;1.63;;
74894;SDS011;63447;49.446;8.666;2023-03-11T09:56:04;4.60;;;1.48;;
74894;SDS011;63447;49.446;8.666;2023-03-11T10:01:11;6.45;;;2.33;;
74894;SDS011;63447;49.446;8.666;2023-03-11T10:03:48;3.97;;;1.08;;
74894;SDS011;63447;49.446;8.666;2023-03-11T10:06:20;5.72;;;1.08;;
74894;SDS011;63447;49.446;8.666;2023-03-11T10:08:48;5.15;;;1.45;;
74894;SDS011;63447;49.446;8.666;2023-03-11T10:19:35;5.22;;;0.90;;
74894;SDS011;63447;49.446;8.666;2023-03-11T10:22:22;3.78;;;1.00;;
74894;SDS011;63447;49.446;8.666;2023-03-11T10:25:20;5.32;;;0.90;;
74894;SDS011;63447;49.446;8.666;2023-03-11T10:27:51;4.35;;;0.93;;
74894;SDS011;63447;49.446;8.666;2023-03-11T10:35:37;5.00;;;0.95;;
74894;SDS011;63447;49.446;8.666;2023-03-11T10:38:17;4.97;;;1.00;;
74894;SDS011;63447;49.446;8.666;2023-03-11T10:40:46;4.93;;;1.00;;
74894;SDS011;63447;49.446;8.666;2023-03-11T10:43:15;8.70;;;1.10;;
74894;SDS011;63447;49.446;8.666;2023-03-11T10:45:41;3.95;;;1.08;;
74894;SDS011;63447;49.446;8.666;2023-03-11T10:48:13;3.45;;;0.80;;
74894;SDS011;63447;49.446;8.666;2023-03-11T10:50:51;6.00;;;1.05;;
74894;SDS011;63447;49.446;8.666;2023-03-11T10:53:22;5.80;;;1.02;;
74894;SDS011;63447;49.446;8.666;2023-03-11T10:55:55;4.73;;;1.10;;
74894;SDS011;63447;49.446;8.666;2023-03-11T10:58:31;6.15;;;1.00;;
74894;SDS011;63447;49.446;8.666;2023-03-11T11:01:05;3.88;;;1.00;;
74894;SDS011;63447;49.446;8.666;2023-03-11T11:03:32;4.75;;;1.20;;
74894;SDS011;63447;49.446;8.666;2023-03-11T11:06:05;3.70;;;0.80;;
74894;SDS011;63447;49.446;8.666;2023-03-11T11:08:44;4.00;;;1.02;;
74894;SDS011;63447;49.446;8.666;2023-03-11T11:11:20;4.53;;;1.13;;
74894;SDS011;63447;49.446;8.666;2023-03-11T11:13:56;6.20;;;1.27;;
74894;SDS011;63447;49.446;8.666;2023-03-11T11:16:22;4.80;;;0.95;;
74894;SDS011;63447;49.446;8.666;2023-03-11T11:18:49;6.18;;;1.15;;
74894;SDS011;63447;49.446;8.666;2023-03-11T11:21:30;5.30;;;1.00;;
74894;SDS011;63447;49.446;8.666;2023-03-11T11:27:04;4.80;;;1.17;;
74894;SDS011;63447;49.446;8.666;2023-03-11T11:29:31;4.82;;;1.15;;
74894;SDS011;63447;49.446;8.666;2023-03-11T11:32:16;3.70;;;1.10;;
74894;SDS011;63447;49.446;8.666;2023-03-11T11:37:35;6.25;;;1.20;;
74894;SDS011;63447;49.446;8.666;2023-03-11T11:42:55;4.07;;;1.00;;
74894;SDS011;63447;49.446;8.666;2023-03-11T11:45:37;5.10;;;1.35;;
74894;SDS011;63447;49.446;8.666;2023-03-11T11:48:40;4.32;;;1.00;;
74894;SDS011;63447;49.446;8.666;2023-03-11T11:51:20;4.97;;;1.48;;
74894;SDS011;63447;49.446;8.666;2023-03-11T11:53:51;3.70;;;1.10;;
74894;SDS011;63447;49.446;8.666;2023-03-11T11:56:23;3.75;;;1.00;;
74894;SDS011;63447;49.446;8.666;2023-03-11T11:58:51;4.43;;;1.00;;
74894;SDS011;63447;49.446;8.666;2023-03-11T12:01:22;3.65;;;1.10;;
74894;SDS011;63447;49.446;8.666;2023-03-11T12:04:00;5.63;;;1.30;;
74894;SDS011;63447;49.446;8.666;2023-03-11T12:09:33;4.97;;;1.52;;
74894;SDS011;63447;49.446;8.666;2023-03-11T12:12:22;5.25;;;1.80;;
74894;SDS011;63447;49.446;8.666;2023-03-11T12:17:38;8.38;;;2.22;;
74894;SDS011;63447;49.446;8.666;2023-03-11T12:28:13;3.85;;;1.20;;
74894;SDS011;63447;49.446;8.666;2023-03-11T12:30:40;4.57;;;1.30;;
74894;SDS011;63447;49.446;8.666;2023-03-11T12:36:04;4.55;;;1.20;;
74894;SDS011;63447;49.446;8.666;2023-03-11T12:38:38;3.65;;;1.10;;
74894;SDS011;63447;49.446;8.666;2023-03-11T12:46:08;4.20;;;1.20;;
74894;SDS011;63447;49.446;8.666;2023-03-11T12:48:40;5.00;;;1.05;;
74894;SDS011;63447;49.446;8.666;2023-03-11T12:53:58;5.45;;;1.63;;
74894;SDS011;63447;49.446;8.666;2023-03-11T12:56:55;5.15;;;1.60;;
74894;SDS011;63447;49.446;8.666;2023-03-11T13:10:02;5.15;;;1.55;;
74894;SDS011;63447;49.446;8.666;2023-03-11T13:17:42;6.07;;;1.30;;
74894;SDS011;63447;49.446;8.666;2023-03-11T13:30:55;4.25;;;1.00;;
74894;SDS011;63447;49.446;8.666;2023-03-11T13:44:59;5.40;;;1.40;;
74894;SDS011;63447;49.446;8.666;2023-03-11T13:47:29;4.80;;;1.30;;
74894;SDS011;63447;49.446;8.666;2023-03-11T13:50:07;4.57;;;1.38;;
74894;SDS011;63447;49.446;8.666;2023-03-11T13:52:45;6.03;;;1.30;;
74894;SDS011;63447;49.446;8.666;2023-03-11T13:55:21;3.88;;;1.33;;
74894;SDS011;63447;49.446;8.666;2023-03-11T13:57:53;5.07;;;1.30;;
74894;SDS011;63447;49.446;8.666;2023-03-11T14:00:22;4.55;;;1.42;;
74894;SDS011;63447;49.446;8.666;2023-03-11T14:02:57;5.10;;;1.30;;
74894;SDS011;63447;49.446;8.666;2023-03-11T14:05:26;7.03;;;1.50;;
74894;SDS011;63447;49.446;8.666;2023-03-11T14:10:50;3.88;;;1.27;;
74894;SDS011;63447;49.446;8.666;2023-03-11T14:13:19;5.53;;;2.08;;
74894;SDS011;63447;49.446;8.666;2023-03-11T14:15:46;5.20;;;1.20;;
74894;SDS011;63447;49.446;8.666;2023-03-11T14:18:27;5.47;;;1.20;;
74894;SDS011;63447;49.446;8.666;2023-03-11T14:20:52;4.78;;;1.33;;
74894;SDS011;63447;49.446;8.666;2023-03-11T14:23:18;5.90;;;1.45;;
74894;SDS011;63447;49.446;8.666;2023-03-11T14:25:44;6.18;;;1.48;;
74894;SDS011;63447;49.446;8.666;2023-03-11T14:28:17;7.65;;;1.60;;
74894;SDS011;63447;49.446;8.666;2023-03-11T14:31:02;3.97;;;1.35;;
74894;SDS011;63447;49.446;8.666;2023-03-11T14:33:29;5.35;;;1.65;;
74894;SDS011;63447;49.446;8.666;2023-03-11T14:35:57;7.55;;;2.35;;
74894;SDS011;63447;49.446;8.666;2023-03-11T14:38:31;4.55;;;1.30;;
74894;SDS011;63447;49.446;8.666;2023-03-11T14:41:01;5.95;;;1.45;;
74894;SDS011;63447;49.446;8.666;2023-03-11T14:43:31;6.22;;;1.52;;
74894;SDS011;63447;49.446;8.666;2023-03-11T14:46:01;6.60;;;1.40;;
74894;SDS011;63447;49.446;8.666;2023-03-11T14:48:35;5.10;;;1.40;;
74894;SDS011;63447;49.446;8.666;2023-03-11T14:51:03;4.47;;;1.23;;
74894;SDS011;63447;49.446;8.666;2023-03-11T14:56:05;5.97;;;1.52;;
74894;SDS011;63447;49.446;8.666;2023-03-11T14:58:40;4.97;;;1.33;;
74894;SDS011;63447;49.446;8.666;2023-03-11T15:03:39;4.50;;;1.45;;
74894;SDS011;63447;49.446;8.666;2023-03-11T15:06:11;5.93;;;1.58;;
74894;SDS011;63447;49.446;8.666;2023-03-11T15:08:45;4.45;;;1.20;;
74894;SDS011;63447;49.446;8.666;2023-03-11T15:13:43;4.60;;;1.23;;
74894;SDS011;63447;49.446;8.666;2023-03-11T15:19:20;6.13;;;1.30;;
74894;SDS011;63447;49.446;8.666;2023-03-11T15:21:48;6.97;;;1.50;;
74894;SDS011;63447;49.446;8.666;2023-03-11T15:24:19;4.75;;;1.35;;
74894;SDS011;63447;49.446;8.666;2023-03-11T15:26:54;4.95;;;1.40;;
74894;SDS011;63447;49.446;8.666;2023-03-11T15:29:31;4.38;;;1.48;;
74894;SDS011;63447;49.446;8.666;2023-03-11T15:31:58;5.55;;;1.60;;
74894;SDS011;63447;49.446;8.666;2023-03-11T15:34:31;6.00;;;1.52;;
74894;SDS011;63447;49.446;8.666;2023-03-11T15:42:02;4.97;;;1.23;;
74894;SDS011;63447;49.446;8.666;2023-03-11T15:47:13;6.20;;;1.42;;
74894;SDS011;63447;49.446;8.666;2023-03-11T15:49:41;3.35;;;1.10;;
74894;SDS011;63447;49.446;8.666;2023-03-11T15:52:10;5.60;;;1.30;;
74894;SDS011;63447;49.446;8.666;2023-03-11T15:54:36;5.88;;;1.70;;
74894;SDS011;63447;49.446;8.666;2023-03-11T15:57:03;3.97;;;1.20;;
74894;SDS011;63447;49.446;8.666;2023-03-11T15:59:31;5.47;;;1.40;;
74894;SDS011;63447;49.446;8.666;2023-03-11T16:01:58;3.25;;;1.05;;
74894;SDS011;63447;49.446;8.666;2023-03-11T16:04:23;5.03;;;1.30;;
74894;SDS011;63447;49.446;8.666;2023-03-11T16:06:49;3.92;;;1.25;;
74894;SDS011;63447;49.446;8.666;2023-03-11T16:09:17;4.75;;;1.23;;
74894;SDS011;63447;49.446;8.666;2023-03-11T16:11:43;3.93;;;1.20;;
74894;SDS011;63447;49.446;8.666;2023-03-11T16:14:10;4.00;;;1.33;;
74894;SDS011;63447;49.446;8.666;2023-03-11T16:16:42;5.93;;;1.40;;
74894;SDS011;63447;49.446;8.666;2023-03-11T16:19:10;8.30;;;1.58;;
74894;SDS011;63447;49.446;8.666;2023-03-11T16:21:38;5.85;;;1.50;;
74894;SDS011;63447;49.446;8.666;2023-03-11T16:24:11;5.45;;;1.42;;
74894;SDS011;63447;49.446;8.666;2023-03-11T16:26:46;5.55;;;1.50;;
74894;SDS011;63447;49.446;8.666;2023-03-11T16:29:11;6.43;;;1.52;;
74894;SDS011;63447;49.446;8.666;2023-03-11T16:31:39;6.78;;;2.05;;
74894;SDS011;63447;49.446;8.666;2023-03-11T16:34:04;4.78;;;1.23;;
74894;SDS011;63447;49.446;8.666;2023-03-11T16:36:32;3.22;;;1.20;;
74894;SDS011;63447;49.446;8.666;2023-03-11T16:38:58;5.73;;;1.30;;
74894;SDS011;63447;49.446;8.666;2023-03-11T16:41:23;4.07;;;1.52;;
74894;SDS011;63447;49.446;8.666;2023-03-11T16:43:48;7.32;;;1.73;;
74894;SDS011;63447;49.446;8.666;2023-03-11T16:46:14;6.20;;;1.90;;
74894;SDS011;63447;49.446;8.666;2023-03-11T16:48:39;6.05;;;1.50;;
74894;SDS011;63447;49.446;8.666;2023-03-11T16:51:07;5.30;;;1.40;;
74894;SDS011;63447;49.446;8.666;2023-03-11T16:53:33;4.78;;;1.63;;
74894;SDS011;63447;49.446;8.666;2023-03-11T16:56:00;10.38;;;3.30;;
74894;SDS011;63447;49.446;8.666;2023-03-11T16:58:26;6.95;;;2.30;;
74894;SDS011;63447;49.446;8.666;2023-03-11T17:00:53;5.70;;;1.95;;
74894;SDS011;63447;49.446;8.666;2023-03-11T17:03:21;6.93;;;2.13;;
74894;SDS011;63447;49.446;8.666;2023-03-11T17:05:48;5.15;;;1.88;;
74894;SDS011;63447;49.446;8.666;2023-03-11T17:08:14;6.97;;;3.17;;
74894;SDS011;63447;49.446;8.666;2023-03-11T17:10:42;8.45;;;2.60;;
74894;SDS011;63447;49.446;8.666;2023-03-11T17:13:09;11.07;;;4.32;;
74894;SDS011;63447;49.446;8.666;2023-03-11T17:15:37;13.93;;;4.60;;
74894;SDS011;63447;49.446;8.666;2023-03-11T17:18:03;8.90;;;2.90;;
74894;SDS011;63447;49.446;8.666;2023-03-11T17:20:29;7.82;;;3.05;;